createdAt,value
2019-05-23T00:00:52.641Z,1014.3
2019-05-23T00:01:54.040Z,1014.3
2019-05-23T00:02:55.547Z,1014.3
2019-05-23T00:03:56.950Z,1014.3
2019-05-23T00:04:58.344Z,1014.2
2019-05-23T00:06:00.234Z,1014.2
2019-05-23T00:07:01.635Z,1014.2
2019-05-23T00:08:03.066Z,1014.2
2019-05-23T00:09:04.571Z,1014.3
2019-05-23T00:10:05.970Z,1014.2
2019-05-23T00:11:07.372Z,1014.2
2019-05-23T00:12:08.891Z,1014.3
2019-05-23T00:13:10.292Z,1014.3
2019-05-23T00:14:11.772Z,1014.3
2019-05-23T00:15:13.195Z,1014.3
2019-05-23T00:16:15.031Z,1014.3
2019-05-23T00:17:16.468Z,1014.3
2019-05-23T00:18:20.833Z,1014.3
2019-05-23T00:19:19.324Z,1014.3
2019-05-23T00:20:20.825Z,1014.3
2019-05-23T00:21:22.223Z,1014.3
2019-05-23T00:22:23.620Z,1014.3
2019-05-23T00:23:25.146Z,1014.2
2019-05-23T00:24:26.578Z,1014.3
2019-05-23T00:25:27.981Z,1014.2
2019-05-23T00:26:29.467Z,1014.2
2019-05-23T00:27:30.867Z,1014.3
2019-05-23T00:28:32.347Z,1014.2
2019-05-23T00:29:33.768Z,1014.3
2019-05-23T00:30:35.229Z,1014.3
2019-05-23T00:31:36.627Z,1014.2
2019-05-23T00:32:38.117Z,1014.3
2019-05-23T00:33:39.885Z,1014.3
2019-05-23T00:34:41.457Z,1014.3
2019-05-23T00:35:42.801Z,1014.3
2019-05-23T00:36:44.272Z,1014.2
2019-05-23T00:37:45.720Z,1014.2
2019-05-23T00:38:47.118Z,1014.2
2019-05-23T00:39:48.517Z,1014.3
2019-05-23T00:40:50.038Z,1014.3
2019-05-23T00:41:51.440Z,1014.3
2019-05-23T00:42:52.929Z,1014.3
2019-05-23T00:43:54.323Z,1014.3
2019-05-23T00:44:55.812Z,1014.3
2019-05-23T00:45:57.227Z,1014.3
2019-05-23T00:46:58.689Z,1014.2
2019-05-23T00:48:00.083Z,1014.2
2019-05-23T00:49:01.568Z,1014.2
2019-05-23T00:50:02.966Z,1014.2
2019-05-23T00:51:05.291Z,1014.2
2019-05-23T00:52:05.890Z,1014.2
2019-05-23T00:53:07.294Z,1014.2
2019-05-23T00:54:08.707Z,1014.2
2019-05-23T00:55:10.219Z,1014.2
2019-05-23T00:56:11.621Z,1014.2
2019-05-23T00:57:13.089Z,1014.2
2019-05-23T00:58:14.489Z,1014.2
2019-05-23T00:59:26.461Z,1014.2
2019-05-23T01:00:17.337Z,1014.1
2019-05-23T01:01:18.777Z,1014.2
2019-05-23T01:02:20.291Z,1014.2
2019-05-23T01:03:21.695Z,1014.2
2019-05-23T01:04:23.094Z,1014.2
2019-05-23T01:05:24.617Z,1014.2
2019-05-23T01:06:26.018Z,1014.1
2019-05-23T01:07:27.795Z,1014.2
2019-05-23T01:08:29.342Z,1014.2
2019-05-23T01:09:30.744Z,1014.2
2019-05-23T01:10:32.149Z,1014.1
2019-05-23T01:11:33.665Z,1014.2
2019-05-23T01:12:35.120Z,1014.1
2019-05-23T01:13:36.512Z,1014.2
2019-05-23T01:14:37.999Z,1014.2
2019-05-23T01:15:39.385Z,1014.1
2019-05-23T01:16:40.786Z,1014.2
2019-05-23T01:17:42.362Z,1014.1
2019-05-23T01:18:43.768Z,1014.1
2019-05-23T01:19:45.167Z,1014.1
2019-05-23T01:20:47.015Z,1014.1
2019-05-23T01:21:48.405Z,1014.1
2019-05-23T01:22:49.803Z,1014.1
2019-05-23T01:23:51.359Z,1014.1
2019-05-23T01:24:52.759Z,1014.1
2019-05-23T01:25:54.162Z,1014.1
2019-05-23T01:26:55.682Z,1014.1
2019-05-23T01:27:57.082Z,1014.1
2019-05-23T01:28:58.563Z,1014.1
2019-05-23T01:29:59.966Z,1014.1
2019-05-23T01:31:01.361Z,1014.1
2019-05-23T01:32:02.886Z,1014.1
2019-05-23T01:33:04.288Z,1014.0
2019-05-23T01:34:05.686Z,1014.1
2019-05-23T01:35:07.209Z,1014.1
2019-05-23T01:36:08.602Z,1014.0
2019-05-23T01:37:10.058Z,1014.1
2019-05-23T01:38:11.534Z,1014.0
2019-05-23T01:39:12.971Z,1014.0
2019-05-23T01:40:14.410Z,1014.1
2019-05-23T01:41:15.805Z,1014.0
2019-05-23T01:42:17.215Z,1014.0
2019-05-23T01:43:18.731Z,1014.0
2019-05-23T01:44:20.174Z,1014.0
2019-05-23T01:45:21.577Z,1014.0
2019-05-23T01:46:23.053Z,1014.0
2019-05-23T01:47:24.454Z,1014.0
2019-05-23T01:48:25.934Z,1014.0
2019-05-23T01:49:27.332Z,1014.0
2019-05-23T01:50:28.811Z,1014.0
2019-05-23T01:51:30.209Z,1014.0
2019-05-23T01:52:31.618Z,1014.0
2019-05-23T01:53:33.135Z,1014.0
2019-05-23T01:54:34.536Z,1014.0
2019-05-23T01:55:35.930Z,1014.0
2019-05-23T01:56:37.455Z,1014.0
2019-05-23T01:57:39.235Z,1014.0
2019-05-23T01:58:40.629Z,1014.0
2019-05-23T01:59:42.190Z,1014.0
2019-05-23T02:00:43.626Z,1014.0
2019-05-23T02:01:44.985Z,1014.0
2019-05-23T02:02:46.507Z,1014.0
2019-05-23T02:03:47.912Z,1014.0
2019-05-23T02:04:49.388Z,1013.9
2019-05-23T02:05:50.853Z,1014.0
2019-05-23T02:06:52.868Z,1013.9
2019-05-23T02:07:54.249Z,1014.0
2019-05-23T02:08:55.766Z,1014.0
2019-05-23T02:09:57.164Z,1014.0
2019-05-23T02:10:59.024Z,1014.0
2019-05-23T02:12:00.424Z,1014.0
2019-05-23T02:13:01.937Z,1014.0
2019-05-23T02:14:03.335Z,1014.0
2019-05-23T02:15:04.820Z,1014.0
2019-05-23T02:16:06.219Z,1014.0
2019-05-23T02:17:07.716Z,1014.0
2019-05-23T02:18:09.102Z,1013.9
2019-05-23T02:19:13.573Z,1013.9
2019-05-23T02:20:11.944Z,1013.9
2019-05-23T02:21:13.461Z,1013.9
2019-05-23T02:22:14.914Z,1014.0
2019-05-23T02:23:16.719Z,1013.9
2019-05-23T02:24:18.117Z,1013.9
2019-05-23T02:25:19.632Z,1013.9
2019-05-23T02:26:21.027Z,1013.9
2019-05-23T02:27:22.581Z,1013.9
2019-05-23T02:28:23.991Z,1013.9
2019-05-23T02:29:25.602Z,1013.9
2019-05-23T02:30:35.738Z,1013.9
2019-05-23T02:31:28.478Z,1013.8
2019-05-23T02:32:29.872Z,1013.8
2019-05-23T02:33:31.274Z,1013.9
2019-05-23T02:34:32.818Z,1013.8
2019-05-23T02:35:34.196Z,1013.8
2019-05-23T02:36:35.600Z,1013.8
2019-05-23T02:37:37.124Z,1013.8
2019-05-23T02:38:38.580Z,1013.8
2019-05-23T02:39:40.009Z,1013.8
2019-05-23T02:40:41.408Z,1013.8
2019-05-23T02:41:42.893Z,1013.8
2019-05-23T02:42:44.285Z,1013.8
2019-05-23T02:43:45.711Z,1013.8
2019-05-23T02:44:47.206Z,1013.7
2019-05-23T02:45:48.607Z,1013.7
2019-05-23T02:46:49.998Z,1013.7
2019-05-23T02:47:51.529Z,1013.7
2019-05-23T02:48:52.969Z,1013.7
2019-05-23T02:49:54.365Z,1013.7
2019-05-23T02:50:55.853Z,1013.7
2019-05-23T02:51:57.241Z,1013.7
2019-05-23T02:52:58.633Z,1013.7
2019-05-23T02:54:00.221Z,1013.7
2019-05-23T02:55:01.643Z,1013.6
2019-05-23T02:56:03.028Z,1013.7
2019-05-23T02:57:04.496Z,1013.6
2019-05-23T02:58:05.894Z,1013.6
2019-05-23T02:59:07.294Z,1013.6
2019-05-23T03:00:08.825Z,1013.6
2019-05-23T03:01:10.215Z,1013.6
2019-05-23T03:02:11.607Z,1013.7
2019-05-23T03:03:13.138Z,1013.7
2019-05-23T03:04:14.540Z,1013.6
2019-05-23T03:05:16.028Z,1013.6
2019-05-23T03:06:17.533Z,1013.7
2019-05-23T03:07:18.912Z,1013.6
2019-05-23T03:08:20.294Z,1013.6
2019-05-23T03:09:21.710Z,1013.6
2019-05-23T03:10:23.232Z,1013.5
2019-05-23T03:11:24.725Z,1013.6
2019-05-23T03:12:26.123Z,1013.5
2019-05-23T03:13:27.748Z,1013.6
2019-05-23T03:14:29.142Z,1013.5
2019-05-23T03:15:30.636Z,1013.6
2019-05-23T03:16:32.050Z,1013.5
2019-05-23T03:17:33.513Z,1013.5
2019-05-23T03:18:35.094Z,1013.5
2019-05-23T03:19:36.401Z,1013.5
2019-05-23T03:20:37.814Z,1013.5
2019-05-23T03:21:39.269Z,1013.5
2019-05-23T03:22:40.689Z,1013.5
2019-05-23T03:23:42.149Z,1013.4
2019-05-23T03:24:43.547Z,1013.4
2019-05-23T03:25:45.044Z,1013.5
2019-05-23T03:26:46.441Z,1013.4
2019-05-23T03:27:47.840Z,1013.5
2019-05-23T03:28:49.353Z,1013.4
2019-05-23T03:29:50.751Z,1013.5
2019-05-23T03:30:52.152Z,1013.5
2019-05-23T03:31:53.693Z,1013.5
2019-05-23T03:32:55.073Z,1013.5
2019-05-23T03:33:56.470Z,1013.4
2019-05-23T03:34:58.389Z,1013.5
2019-05-23T03:35:59.885Z,1013.5
2019-05-23T03:37:01.184Z,1013.4
2019-05-23T03:38:02.737Z,1013.5
2019-05-23T03:39:04.123Z,1013.5
2019-05-23T03:40:05.558Z,1013.5
2019-05-23T03:41:07.048Z,1013.5
2019-05-23T03:42:08.459Z,1013.5
2019-05-23T03:43:09.862Z,1013.5
2019-05-23T03:44:11.371Z,1013.5
2019-05-23T03:45:12.765Z,1013.5
2019-05-23T03:46:14.168Z,1013.5
2019-05-23T03:47:15.693Z,1013.4
2019-05-23T03:48:17.091Z,1013.4
2019-05-23T03:49:18.495Z,1013.4
2019-05-23T03:50:20.018Z,1013.5
2019-05-23T03:51:21.422Z,1013.4
2019-05-23T03:52:22.816Z,1013.4
2019-05-23T03:53:24.335Z,1013.4
2019-05-23T03:54:25.735Z,1013.4
2019-05-23T03:55:27.218Z,1013.4
2019-05-23T03:56:28.689Z,1013.4
2019-05-23T03:57:30.401Z,1013.4
2019-05-23T03:58:31.799Z,1013.4
2019-05-23T03:59:33.283Z,1013.4
2019-05-23T04:00:34.710Z,1013.4
2019-05-23T04:01:47.651Z,1013.5
2019-05-23T04:02:37.760Z,1013.5
2019-05-23T04:03:40.113Z,1013.5
2019-05-23T04:04:40.693Z,1013.4
2019-05-23T04:05:42.091Z,1013.5
2019-05-23T04:06:43.498Z,1013.4
2019-05-23T04:07:45.011Z,1013.4
2019-05-23T04:08:46.414Z,1013.4
2019-05-23T04:09:47.839Z,1013.4
2019-05-23T04:10:51.830Z,1013.4
2019-05-23T04:11:50.911Z,1013.4
2019-05-23T04:12:52.308Z,1013.4
2019-05-23T04:13:53.861Z,1013.4
2019-05-23T04:14:55.259Z,1013.4
2019-05-23T04:15:56.663Z,1013.4
2019-05-23T04:16:58.285Z,1013.4
2019-05-23T04:17:59.686Z,1013.4
2019-05-23T04:19:01.093Z,1013.4
2019-05-23T04:20:02.618Z,1013.4
2019-05-23T04:21:04.029Z,1013.4
2019-05-23T04:22:05.425Z,1013.5
2019-05-23T04:23:06.924Z,1013.4
2019-05-23T04:24:08.331Z,1013.5
2019-05-23T04:25:09.807Z,1013.4
2019-05-23T04:26:11.207Z,1013.4
2019-05-23T04:27:12.697Z,1013.5
2019-05-23T04:28:14.091Z,1013.4
2019-05-23T04:29:15.492Z,1013.5
2019-05-23T04:30:17.031Z,1013.4
2019-05-23T04:31:18.432Z,1013.4
2019-05-23T04:32:19.836Z,1013.4
2019-05-23T04:33:21.436Z,1013.5
2019-05-23T04:34:22.901Z,1013.5
2019-05-23T04:35:24.519Z,1013.4
2019-05-23T04:36:25.957Z,1013.5
2019-05-23T04:37:27.608Z,1013.5
2019-05-23T04:38:29.023Z,1013.5
2019-05-23T04:39:30.411Z,1013.4
2019-05-23T04:40:32.034Z,1013.5
2019-05-23T04:41:33.443Z,1013.4
2019-05-23T04:42:34.836Z,1013.4
2019-05-23T04:43:36.355Z,1013.4
2019-05-23T04:44:37.754Z,1013.5
2019-05-23T04:45:39.236Z,1013.5
2019-05-23T04:46:40.641Z,1013.5
2019-05-23T04:47:42.219Z,1013.5
2019-05-23T04:48:43.618Z,1013.4
2019-05-23T04:49:45.306Z,1013.4
2019-05-23T04:50:46.730Z,1013.4
2019-05-23T04:51:48.424Z,1013.5
2019-05-23T04:52:49.827Z,1013.4
2019-05-23T04:53:51.474Z,1013.4
2019-05-23T04:54:52.875Z,1013.5
2019-05-23T04:55:54.559Z,1013.5
2019-05-23T04:56:55.963Z,1013.5
2019-05-23T04:57:57.663Z,1013.5
2019-05-23T04:58:59.048Z,1013.5
2019-05-23T05:00:00.731Z,1013.5
2019-05-23T05:01:02.438Z,1013.5
2019-05-23T05:02:04.023Z,1013.5
2019-05-23T05:03:05.459Z,1013.5
2019-05-23T05:04:06.865Z,1013.5
2019-05-23T05:05:08.558Z,1013.6
2019-05-23T05:06:09.967Z,1013.6
2019-05-23T05:07:11.358Z,1013.5
2019-05-23T05:08:13.130Z,1013.6
2019-05-23T05:09:14.499Z,1013.6
2019-05-23T05:10:15.907Z,1013.5
2019-05-23T05:11:17.602Z,1013.5
2019-05-23T05:12:19.000Z,1013.5
2019-05-23T05:13:20.403Z,1013.5
2019-05-23T05:14:22.165Z,1013.5
2019-05-23T05:15:23.543Z,1013.5
2019-05-23T05:16:25.212Z,1013.5
2019-05-23T05:17:26.648Z,1013.5
2019-05-23T05:18:28.047Z,1013.5
2019-05-23T05:19:29.765Z,1013.5
2019-05-23T05:20:31.193Z,1013.5
2019-05-23T05:21:32.574Z,1013.5
2019-05-23T05:22:34.343Z,1013.5
2019-05-23T05:23:35.838Z,1013.6
2019-05-23T05:24:40.116Z,1013.6
2019-05-23T05:25:38.793Z,1013.6
2019-05-23T05:26:40.206Z,1013.6
2019-05-23T05:27:41.598Z,1013.5
2019-05-23T05:28:43.324Z,1013.5
2019-05-23T05:29:44.730Z,1013.6
2019-05-23T05:30:46.430Z,1013.6
2019-05-23T05:31:47.830Z,1013.5
2019-05-23T05:32:49.560Z,1013.6
2019-05-23T05:33:50.914Z,1013.6
2019-05-23T05:34:52.576Z,1013.6
2019-05-23T05:35:54.519Z,1013.7
2019-05-23T05:36:56.127Z,1013.6
2019-05-23T05:37:57.516Z,1013.7
2019-05-23T05:38:59.171Z,1013.7
2019-05-23T05:40:00.572Z,1013.7
2019-05-23T05:41:02.241Z,1013.6
2019-05-23T05:42:03.675Z,1013.7
2019-05-23T05:43:05.328Z,1013.7
2019-05-23T05:44:06.737Z,1013.7
2019-05-23T05:45:08.412Z,1013.7
2019-05-23T05:46:09.815Z,1013.7
2019-05-23T05:47:11.520Z,1013.7
2019-05-23T05:48:12.903Z,1013.7
2019-05-23T05:49:14.583Z,1013.7
2019-05-23T05:50:15.989Z,1013.7
2019-05-23T05:51:17.671Z,1013.7
2019-05-23T05:52:19.074Z,1013.7
2019-05-23T05:53:20.780Z,1013.7
2019-05-23T05:54:22.216Z,1013.7
2019-05-23T05:55:23.842Z,1013.7
2019-05-23T05:56:25.246Z,1013.7
2019-05-23T05:57:26.928Z,1013.7
2019-05-23T05:58:28.334Z,1013.8
2019-05-23T05:59:30.018Z,1013.8
2019-05-23T06:00:31.425Z,1013.8
2019-05-23T06:01:34.289Z,1013.8
2019-05-23T06:02:34.476Z,1013.7
2019-05-23T06:03:38.821Z,1013.8
2019-05-23T06:04:40.224Z,1013.8
2019-05-23T06:05:41.626Z,1013.8
2019-05-23T06:06:43.177Z,1013.8
2019-05-23T06:07:44.584Z,1013.9
2019-05-23T06:08:45.983Z,1013.9
2019-05-23T06:09:47.695Z,1013.8
2019-05-23T06:10:49.137Z,1013.8
2019-05-23T06:11:50.804Z,1013.9
2019-05-23T06:12:52.210Z,1013.8
2019-05-23T06:13:54.161Z,1013.8
2019-05-23T06:14:55.243Z,1013.9
2019-05-23T06:15:56.640Z,1013.9
2019-05-23T06:16:58.202Z,1013.9
2019-05-23T06:18:00.516Z,1013.9
2019-05-23T06:19:01.872Z,1013.8
2019-05-23T06:20:03.563Z,1013.9
2019-05-23T06:21:04.939Z,1013.9
2019-05-23T06:22:06.346Z,1013.9
2019-05-23T06:23:08.061Z,1013.9
2019-05-23T06:24:09.494Z,1013.9
2019-05-23T06:25:10.911Z,1013.9
2019-05-23T06:26:12.586Z,1013.9
2019-05-23T06:27:13.992Z,1014.0
2019-05-23T06:28:15.673Z,1014.0
2019-05-23T06:29:17.085Z,1013.9
2019-05-23T06:30:18.820Z,1014.0
2019-05-23T06:31:20.226Z,1014.0
2019-05-23T06:32:21.847Z,1014.0
2019-05-23T06:33:24.110Z,1014.1
2019-05-23T06:34:24.963Z,1014.1
2019-05-23T06:35:26.364Z,1014.1
2019-05-23T06:36:28.015Z,1014.2
2019-05-23T06:37:33.513Z,1014.2
2019-05-23T06:38:31.101Z,1014.2
2019-05-23T06:39:32.508Z,1014.2
2019-05-23T06:40:33.932Z,1014.2
2019-05-23T06:41:35.683Z,1014.2
2019-05-23T06:42:37.082Z,1014.3
2019-05-23T06:43:38.493Z,1014.3
2019-05-23T06:44:40.155Z,1014.3
2019-05-23T06:45:41.587Z,1014.4
2019-05-23T06:46:43.243Z,1014.4
2019-05-23T06:47:44.711Z,1014.3
2019-05-23T06:48:46.482Z,1014.4
2019-05-23T06:49:47.703Z,1014.4
2019-05-23T06:50:49.113Z,1014.4
2019-05-23T06:51:50.649Z,1014.4
2019-05-23T06:52:52.060Z,1014.4
2019-05-23T06:53:53.468Z,1014.4
2019-05-23T06:54:55.179Z,1014.4
2019-05-23T06:55:56.589Z,1014.4
2019-05-23T06:56:58.262Z,1014.4
2019-05-23T06:57:59.671Z,1014.5
2019-05-23T06:59:01.348Z,1014.5
2019-05-23T07:00:02.759Z,1014.5
2019-05-23T07:01:04.451Z,1014.5
2019-05-23T07:02:05.876Z,1014.5
2019-05-23T07:03:07.518Z,1014.5
2019-05-23T07:04:08.925Z,1014.5
2019-05-23T07:05:10.331Z,1014.5
2019-05-23T07:06:12.045Z,1014.5
2019-05-23T07:07:13.459Z,1014.6
2019-05-23T07:08:14.879Z,1014.5
2019-05-23T07:09:16.568Z,1014.5
2019-05-23T07:10:18.001Z,1014.5
2019-05-23T07:11:19.391Z,1014.5
2019-05-23T07:12:21.102Z,1014.6
2019-05-23T07:13:22.521Z,1014.6
2019-05-23T07:14:24.183Z,1014.5
2019-05-23T07:15:25.604Z,1014.6
2019-05-23T07:16:27.666Z,1014.6
2019-05-23T07:17:29.073Z,1014.6
2019-05-23T07:18:30.767Z,1014.6
2019-05-23T07:19:32.175Z,1014.6
2019-05-23T07:20:33.852Z,1014.6
2019-05-23T07:21:35.265Z,1014.6
2019-05-23T07:22:36.673Z,1014.7
2019-05-23T07:23:38.413Z,1014.7
2019-05-23T07:24:56.472Z,1014.7
2019-05-23T07:25:41.210Z,1014.7
2019-05-23T07:26:42.976Z,1014.8
2019-05-23T07:27:44.290Z,1014.7
2019-05-23T07:28:45.986Z,1014.6
2019-05-23T07:29:47.423Z,1014.7
2019-05-23T07:30:49.074Z,1014.6
2019-05-23T07:31:50.490Z,1014.7
2019-05-23T07:32:52.061Z,1014.8
2019-05-23T07:34:01.847Z,1014.7
2019-05-23T07:34:55.032Z,1014.7
2019-05-23T07:35:56.454Z,1014.7
2019-05-23T07:36:57.866Z,1014.7
2019-05-23T07:37:59.563Z,1014.7
2019-05-23T07:39:00.979Z,1014.7
2019-05-23T07:40:02.390Z,1014.7
2019-05-23T07:41:04.115Z,1014.7
2019-05-23T07:42:05.565Z,1014.7
2019-05-23T07:43:06.942Z,1014.7
2019-05-23T07:44:08.667Z,1014.7
2019-05-23T07:45:09.996Z,1014.7
2019-05-23T07:46:11.431Z,1014.8
2019-05-23T07:47:13.360Z,1014.8
2019-05-23T07:48:14.532Z,1014.8
2019-05-23T07:49:15.935Z,1014.9
2019-05-23T07:50:17.465Z,1014.9
2019-05-23T07:51:18.881Z,1014.9
2019-05-23T07:52:20.299Z,1014.8
2019-05-23T07:53:21.991Z,1014.9
2019-05-23T07:54:23.617Z,1014.9
2019-05-23T07:55:25.046Z,1014.9
2019-05-23T07:56:26.636Z,1014.9
2019-05-23T07:57:28.048Z,1014.9
2019-05-23T07:58:29.600Z,1015.0
2019-05-23T07:59:31.017Z,1014.9
2019-05-23T08:00:32.700Z,1014.9
2019-05-23T08:01:34.101Z,1015.0
2019-05-23T08:02:35.512Z,1015.0
2019-05-23T08:03:37.204Z,1015.0
2019-05-23T08:04:38.672Z,1015.0
2019-05-23T08:05:40.104Z,1015.0
2019-05-23T08:06:41.741Z,1015.0
2019-05-23T08:07:43.400Z,1015.0
2019-05-23T08:08:44.555Z,1014.8
2019-05-23T08:09:46.266Z,1014.7
2019-05-23T08:10:47.674Z,1014.4
2019-05-23T08:11:49.087Z,1014.3
2019-05-23T08:12:50.797Z,1014.4
2019-05-23T08:13:52.213Z,1014.3
2019-05-23T08:14:53.625Z,1014.3
2019-05-23T08:15:55.319Z,1014.3
2019-05-23T08:16:56.733Z,1014.3
2019-05-23T08:17:58.429Z,1014.3
2019-05-23T08:18:59.811Z,1014.3
2019-05-23T08:20:01.489Z,1014.3
2019-05-23T08:21:02.902Z,1014.2
2019-05-23T08:22:04.316Z,1014.3
2019-05-23T08:23:06.016Z,1014.3
2019-05-23T08:24:07.419Z,1014.3
2019-05-23T08:25:08.829Z,1014.2
2019-05-23T08:26:10.540Z,1014.3
2019-05-23T08:27:11.959Z,1014.5
2019-05-23T08:28:13.360Z,1014.8
2019-05-23T08:29:27.511Z,1014.7
2019-05-23T08:30:16.516Z,1015.7
2019-05-23T08:31:17.958Z,1015.8
2019-05-23T08:32:19.598Z,1016.9
2019-05-23T08:33:21.006Z,1017.3
2019-05-23T08:34:40.158Z,1017.8
2019-05-23T08:35:23.783Z,1017.7
2019-05-23T08:36:25.198Z,1016.2
2019-05-23T08:37:26.795Z,1015.4
2019-05-23T08:38:28.203Z,1014.6
2019-05-23T08:39:29.893Z,1014.6
2019-05-23T08:40:31.301Z,1014.7
2019-05-23T08:41:32.720Z,1014.8
2019-05-23T08:42:34.412Z,1016.5
2019-05-23T08:43:35.826Z,1021.1
2019-05-23T08:44:37.234Z,1021.9
2019-05-23T08:45:38.937Z,1022.4
2019-05-23T08:46:40.375Z,1019.0
2019-05-23T08:47:41.778Z,1020.5
2019-05-23T08:48:43.462Z,1017.9
2019-05-23T08:49:44.870Z,1015.2
2019-05-23T08:50:46.546Z,1014.5
2019-05-23T08:51:47.953Z,1014.3
2019-05-23T08:52:49.363Z,1014.2
2019-05-23T08:53:51.074Z,1014.3
2019-05-23T08:54:52.491Z,1014.3
2019-05-23T08:55:53.901Z,1014.3
2019-05-23T08:56:55.601Z,1014.3
2019-05-23T08:57:57.031Z,1015.4
2019-05-23T08:58:58.443Z,1017.3
2019-05-23T09:00:00.144Z,1018.5
2019-05-23T09:01:01.535Z,1024.9
2019-05-23T09:02:02.942Z,1026.7
2019-05-23T09:03:04.654Z,1026.4
2019-05-23T09:04:06.069Z,1020.3
2019-05-23T09:05:07.739Z,1016.4
2019-05-23T09:06:09.143Z,1021.2
2019-05-23T09:07:10.823Z,1014.3
2019-05-23T09:08:16.168Z,1014.3
2019-05-23T09:09:28.440Z,1014.2
2019-05-23T09:10:15.313Z,1014.3
2019-05-23T09:11:17.002Z,1014.4
2019-05-23T09:12:18.412Z,1015.0
2019-05-23T09:13:19.815Z,1015.3
2019-05-23T09:14:21.523Z,1025.2
2019-05-23T09:15:22.926Z,1026.6
2019-05-23T09:16:24.358Z,1030.8
2019-05-23T09:17:26.049Z,1029.6
2019-05-23T09:18:27.459Z,1023.9
2019-05-23T09:19:28.866Z,1015.0
2019-05-23T09:20:30.609Z,1014.2
2019-05-23T09:21:32.097Z,1014.2
2019-05-23T09:22:33.433Z,1014.1
2019-05-23T09:23:35.100Z,1014.1
2019-05-23T09:24:36.506Z,1014.1
2019-05-23T09:25:38.218Z,1014.1
2019-05-23T09:26:39.633Z,1014.1
2019-05-23T09:27:41.273Z,1015.5
2019-05-23T09:28:42.677Z,1014.7
2019-05-23T09:29:44.360Z,1014.2
2019-05-23T09:30:45.910Z,1014.0
2019-05-23T09:31:47.442Z,1014.0
2019-05-23T09:32:48.853Z,1014.0
2019-05-23T09:33:50.530Z,1014.0
2019-05-23T09:34:51.936Z,1014.2
2019-05-23T09:35:53.615Z,1014.0
2019-05-23T09:36:55.050Z,1013.9
2019-05-23T09:37:56.453Z,1013.9
2019-05-23T09:38:58.153Z,1013.9
2019-05-23T09:39:59.566Z,1014.1
2019-05-23T09:41:00.984Z,1013.9
2019-05-23T09:42:02.674Z,1013.8
2019-05-23T09:43:04.075Z,1013.9
2019-05-23T09:44:05.751Z,1013.9
2019-05-23T09:45:07.165Z,1013.9
2019-05-23T09:46:08.843Z,1013.9
2019-05-23T09:47:10.242Z,1013.9
2019-05-23T09:48:11.641Z,1013.9
2019-05-23T09:49:13.357Z,1013.9
2019-05-23T09:50:14.769Z,1013.9
2019-05-23T09:51:16.171Z,1014.8
2019-05-23T09:52:17.892Z,1024.1
2019-05-23T09:53:19.298Z,1015.5
2019-05-23T09:54:20.982Z,1028.3
2019-05-23T09:55:22.383Z,1031.4
2019-05-23T09:56:24.064Z,1014.1
2019-05-23T09:57:25.469Z,1018.2
2019-05-23T09:58:26.881Z,1014.1
2019-05-23T09:59:28.596Z,1013.9
2019-05-23T10:00:29.999Z,1013.9
2019-05-23T10:01:31.412Z,1013.7
2019-05-23T10:02:32.820Z,1013.6
2019-05-23T10:03:34.362Z,1013.6
2019-05-23T10:04:35.803Z,1013.7
2019-05-23T10:05:43.267Z,1013.7
2019-05-23T10:06:38.877Z,1013.7
2019-05-23T10:07:40.285Z,1013.7
2019-05-23T10:08:41.703Z,1013.7
2019-05-23T10:09:43.424Z,1013.7
2019-05-23T10:10:44.830Z,1013.6
2019-05-23T10:11:46.264Z,1013.6
2019-05-23T10:12:47.934Z,1013.7
2019-05-23T10:13:49.337Z,1013.7
2019-05-23T10:14:50.742Z,1013.6
2019-05-23T10:15:52.159Z,1013.7
2019-05-23T10:16:53.553Z,1013.7
2019-05-23T10:17:55.134Z,1013.6
2019-05-23T10:18:56.537Z,1013.6
2019-05-23T10:19:57.943Z,1013.5
2019-05-23T10:20:59.683Z,1013.7
2019-05-23T10:22:01.073Z,1013.8
2019-05-23T10:23:02.488Z,1013.8
2019-05-23T10:24:04.184Z,1013.7
2019-05-23T10:25:05.602Z,1013.6
2019-05-23T10:26:07.073Z,1013.6
2019-05-23T10:27:08.720Z,1013.6
2019-05-23T10:28:10.116Z,1013.5
2019-05-23T10:29:11.520Z,1013.5
2019-05-23T10:30:13.233Z,1013.7
2019-05-23T10:31:14.647Z,1013.7
2019-05-23T10:32:16.049Z,1013.7
2019-05-23T10:33:17.768Z,1013.5
2019-05-23T10:34:19.171Z,1013.6
2019-05-23T10:35:20.576Z,1013.4
2019-05-23T10:36:22.295Z,1013.4
2019-05-23T10:37:23.679Z,1013.5
2019-05-23T10:38:28.694Z,1013.5
2019-05-23T10:39:26.615Z,1013.5
2019-05-23T10:40:28.015Z,1013.4
2019-05-23T10:41:29.715Z,1013.4
2019-05-23T10:42:31.146Z,1013.4
2019-05-23T10:43:32.783Z,1013.5
2019-05-23T10:44:34.191Z,1013.5
2019-05-23T10:45:35.880Z,1013.4
2019-05-23T10:46:37.273Z,1013.4
2019-05-23T10:47:38.959Z,1013.3
2019-05-23T10:48:40.356Z,1013.4
2019-05-23T10:49:42.040Z,1013.3
2019-05-23T10:50:45.175Z,1013.4
2019-05-23T10:51:45.944Z,1013.4
2019-05-23T10:52:47.350Z,1013.7
2019-05-23T10:53:48.751Z,1015.4
2019-05-23T10:54:50.476Z,1015.3
2019-05-23T10:55:51.883Z,1013.9
2019-05-23T10:56:53.290Z,1013.3
2019-05-23T10:57:55.012Z,1013.3
2019-05-23T10:58:56.416Z,1013.2
2019-05-23T10:59:58.245Z,1013.2
2019-05-23T11:00:59.646Z,1013.2
2019-05-23T11:02:01.255Z,1013.3
2019-05-23T11:03:02.828Z,1013.3
2019-05-23T11:04:05.067Z,1013.2
2019-05-23T11:05:12.905Z,1013.3
2019-05-23T11:06:16.091Z,1013.2
2019-05-23T11:07:10.689Z,1013.1
2019-05-23T11:08:12.029Z,1013.1
2019-05-23T11:09:13.436Z,1013.1
2019-05-23T11:10:15.155Z,1013.1
2019-05-23T11:11:16.556Z,1013.1
2019-05-23T11:12:17.987Z,1013.1
2019-05-23T11:13:19.677Z,1013.0
2019-05-23T11:14:21.084Z,1013.0
2019-05-23T11:15:22.770Z,1012.9
2019-05-23T11:16:24.173Z,1013.0
2019-05-23T11:17:26.869Z,1013.0
2019-05-23T11:18:28.309Z,1012.9
2019-05-23T11:19:29.720Z,1012.9
2019-05-23T11:20:31.395Z,1012.8
2019-05-23T11:21:32.800Z,1012.9
2019-05-23T11:22:34.197Z,1012.9
2019-05-23T11:23:36.252Z,1012.9
2019-05-23T11:24:37.679Z,1012.9
2019-05-23T11:25:39.084Z,1012.9
2019-05-23T11:26:40.650Z,1012.9
2019-05-23T11:27:42.060Z,1012.9
2019-05-23T11:28:43.470Z,1012.9
2019-05-23T11:29:45.211Z,1012.9
2019-05-23T11:30:46.616Z,1012.9
2019-05-23T11:31:48.025Z,1012.9
2019-05-23T11:32:49.704Z,1013.0
2019-05-23T11:33:51.113Z,1012.9
2019-05-23T11:34:52.554Z,1012.9
2019-05-23T11:35:54.228Z,1012.9
2019-05-23T11:36:55.640Z,1012.9
2019-05-23T11:37:57.707Z,1012.9
2019-05-23T11:38:59.108Z,1012.9
2019-05-23T11:40:00.518Z,1012.9
2019-05-23T11:41:02.045Z,1012.9
2019-05-23T11:42:03.455Z,1012.8
2019-05-23T11:43:04.870Z,1012.9
2019-05-23T11:44:06.578Z,1012.9
2019-05-23T11:45:07.983Z,1012.9
2019-05-23T11:46:09.452Z,1012.8
2019-05-23T11:47:11.102Z,1012.8
2019-05-23T11:48:15.781Z,1012.8
2019-05-23T11:49:13.879Z,1012.8
2019-05-23T11:50:15.425Z,1012.7
2019-05-23T11:51:16.842Z,1012.8
2019-05-23T11:52:18.256Z,1012.8
2019-05-23T11:53:19.949Z,1012.8
2019-05-23T11:54:21.354Z,1012.7
2019-05-23T11:55:22.761Z,1012.7
2019-05-23T11:56:24.595Z,1012.7
2019-05-23T11:57:25.868Z,1012.8
2019-05-23T11:58:31.453Z,1012.8
2019-05-23T11:59:28.932Z,1012.9
2019-05-23T12:00:30.654Z,1012.8
2019-05-23T12:01:32.057Z,1012.8
2019-05-23T12:02:33.764Z,1012.7
2019-05-23T12:03:35.546Z,1012.7
2019-05-23T12:04:36.965Z,1012.7
2019-05-23T12:05:38.666Z,1012.7
2019-05-23T12:06:54.704Z,1012.7
2019-05-23T12:07:41.476Z,1012.7
2019-05-23T12:08:42.989Z,1012.7
2019-05-23T12:09:44.438Z,1012.7
2019-05-23T12:10:46.093Z,1012.7
2019-05-23T12:11:47.488Z,1012.7
2019-05-23T12:12:49.167Z,1012.7
2019-05-23T12:13:50.571Z,1012.7
2019-05-23T12:14:51.976Z,1012.6
2019-05-23T12:15:53.692Z,1012.6
2019-05-23T12:16:55.099Z,1012.6
2019-05-23T12:17:56.511Z,1012.6
2019-05-23T12:18:58.220Z,1012.6
2019-05-23T12:19:59.634Z,1012.5
2019-05-23T12:21:01.026Z,1012.6
2019-05-23T12:22:02.737Z,1012.5
2019-05-23T12:23:10.498Z,1012.5
2019-05-23T12:24:05.518Z,1012.5
2019-05-23T12:25:21.133Z,1012.5
2019-05-23T12:26:08.437Z,1012.5
2019-05-23T12:27:09.836Z,1012.6
2019-05-23T12:28:11.466Z,1012.5
2019-05-23T12:29:12.757Z,1012.5
2019-05-23T12:30:14.198Z,1012.5
2019-05-23T12:31:15.907Z,1012.5
2019-05-23T12:32:17.316Z,1012.5
2019-05-23T12:33:19.050Z,1012.5
2019-05-23T12:34:20.422Z,1012.4
2019-05-23T12:35:22.088Z,1012.5
2019-05-23T12:36:23.482Z,1012.5
2019-05-23T12:37:25.163Z,1012.4
2019-05-23T12:38:26.578Z,1012.4
2019-05-23T12:39:28.251Z,1012.4
2019-05-23T12:40:29.658Z,1012.4
2019-05-23T12:41:31.382Z,1012.4
2019-05-23T12:42:32.824Z,1012.4
2019-05-23T12:43:34.441Z,1012.4
2019-05-23T12:44:35.831Z,1012.4
2019-05-23T12:45:37.243Z,1012.4
2019-05-23T12:46:39.004Z,1012.5
2019-05-23T12:47:40.415Z,1012.4